| Date | Time | Temp. (oF) | Dew Point (oF) | Rel. Hum. (%) | Press. (in.) | Wind Dir. | Wind Speed (mph) | Hourly Rainfall (in.) |
|
|---|---|---|---|---|---|---|---|---|---|
| 1 | 06/03 | 00:00 | 66 | 43 | 45 | 29.90 | W | 1 | 0.00 |
| 2 | 06/02 | 23:00 | 68 | 45 | 45 | 29.87 | NW | 5 | 0.00 |
| 3 | 06/02 | 22:00 | 70 | 46 | 43 | 29.84 | WSW | 7 | 0.00 |
| 4 | 06/02 | 21:00 | 72 | 41 | 34 | 29.78 | WSW | 1 | 0.00 |
| 5 | 06/02 | 20:00 | 76 | 41 | 29 | 29.75 | WNW | 2 | 0.00 |
| 6 | 06/02 | 19:00 | 79 | 44 | 30 | 29.72 | WNW | 4 | 0.00 |
| 7 | 06/02 | 18:00 | 81 | 45 | 29 | 29.70 | NW | 6 | 0.00 |
| 8 | 06/02 | 17:00 | 81 | 46 | 30 | 29.70 | NNW | 5 | 0.00 |
| 9 | 06/02 | 16:00 | 82 | 48 | 32 | 29.70 | WNW | 14 | 0.00 |
| 10 | 06/02 | 15:00 | 81 | 47 | 31 | 29.69 | NW | 10 | 0.00 |
| 11 | 06/02 | 14:00 | 80 | 47 | 32 | 29.68 | W | 6 | 0.00 |
| 12 | 06/02 | 13:00 | 80 | 44 | 29 | 29.69 | W | 7 | 0.00 |
| 13 | 06/02 | 12:00 | 80 | 52 | 39 | 29.67 | WNW | 10 | 0.00 |
| 14 | 06/02 | 11:00 | 80 | 54 | 42 | 29.67 | W | 12 | 0.00 |
| 15 | 06/02 | 10:00 | 78 | 61 | 57 | 29.65 | W | 10 | 0.00 |
| 16 | 06/02 | 09:00 | 75 | 65 | 72 | 29.65 | W | 13 | 0.00 |
| 17 | 06/02 | 08:00 | 72 | 64 | 78 | 29.63 | SW | 5 | 0.00 |
| 18 | 06/02 | 07:00 | 70 | 62 | 77 | 29.61 | W | 3 | 0.00 |
| 19 | 06/02 | 06:00 | 66 | 55 | 68 | 29.59 | W | 3 | 0.00 |
| 20 | 06/02 | 05:00 | 67 | 53 | 62 | 29.60 | SW | 1 | 0.00 |
| 21 | 06/02 | 04:00 | 69 | 52 | 56 | 29.62 | SSW | 3 | 0.00 |
| 22 | 06/02 | 03:00 | 69 | 51 | 54 | 29.63 | WSW | 2 | 0.00 |
| 23 | 06/02 | 02:00 | 70 | 51 | 53 | 29.64 | SSW | 3 | 0.00 |
| 24 | 06/02 | 01:00 | 71 | 54 | 56 | 29.65 | WSW | 5 | 0.00 |